Terminal Aerodrome Forecast
Issued by NWS North Platte, NE

Home | Current Version | Previous Version | Text Only | Print | Product List | Glossary Off
Versions: 1 2 3 4 5 6 7 8 9 10 11 12 13 14 15 16 17 18 19

000
FTUS43 KLBF 182100 AAB
TAFVTN
TAF AMD
KVTN 182157Z 1822/1918 22006KT P6SM SKC
     FM190100 VRB04KT 3SM BR SCT150
     FM191400 24006KT 5SM BR SCT150
     FM191600 24006KT P6SM SCT150=

USA.gov is the U.S. government's official web portal to all federal, state and local government web resources and services.